sensor_id;sensor_type;location;lat;lon;timestamp;P1;durP1;ratioP1;P2;durP2;ratioP2
29958;SDS011;16815;51.100;6.516;2023-03-08T00:01:51;4.97;;;3.90;;
29958;SDS011;16815;51.100;6.516;2023-03-08T00:04:17;6.57;;;3.60;;
29958;SDS011;16815;51.100;6.516;2023-03-08T00:06:43;3.97;;;3.57;;
29958;SDS011;16815;51.100;6.516;2023-03-08T00:09:09;4.47;;;3.17;;
29958;SDS011;16815;51.100;6.516;2023-03-08T00:11:35;3.43;;;3.10;;
29958;SDS011;16815;51.100;6.516;2023-03-08T00:14:00;3.43;;;3.13;;
29958;SDS011;16815;51.100;6.516;2023-03-08T00:16:27;6.57;;;3.30;;
29958;SDS011;16815;51.100;6.516;2023-03-08T00:18:53;4.10;;;3.70;;
29958;SDS011;16815;51.100;6.516;2023-03-08T00:21:19;4.87;;;3.70;;
29958;SDS011;16815;51.100;6.516;2023-03-08T00:23:45;4.37;;;3.00;;
29958;SDS011;16815;51.100;6.516;2023-03-08T00:26:11;5.77;;;3.23;;
29958;SDS011;16815;51.100;6.516;2023-03-08T00:28:38;6.73;;;4.00;;
29958;SDS011;16815;51.100;6.516;2023-03-08T00:31:05;7.27;;;3.87;;
29958;SDS011;16815;51.100;6.516;2023-03-08T00:33:31;7.67;;;3.93;;
29958;SDS011;16815;51.100;6.516;2023-03-08T00:35:59;9.73;;;4.10;;
29958;SDS011;16815;51.100;6.516;2023-03-08T00:38:25;11.90;;;4.93;;
29958;SDS011;16815;51.100;6.516;2023-03-08T00:40:51;9.97;;;4.93;;
29958;SDS011;16815;51.100;6.516;2023-03-08T00:43:17;12.07;;;4.97;;
29958;SDS011;16815;51.100;6.516;2023-03-08T00:45:43;12.13;;;5.57;;
29958;SDS011;16815;51.100;6.516;2023-03-08T00:48:09;7.30;;;4.30;;
29958;SDS011;16815;51.100;6.516;2023-03-08T00:50:35;13.37;;;4.40;;
29958;SDS011;16815;51.100;6.516;2023-03-08T00:53:01;6.97;;;4.20;;
29958;SDS011;16815;51.100;6.516;2023-03-08T00:55:27;11.20;;;4.57;;
29958;SDS011;16815;51.100;6.516;2023-03-08T00:57:53;8.67;;;3.67;;
29958;SDS011;16815;51.100;6.516;2023-03-08T01:00:19;7.20;;;3.87;;
29958;SDS011;16815;51.100;6.516;2023-03-08T01:02:45;8.23;;;4.00;;
29958;SDS011;16815;51.100;6.516;2023-03-08T01:05:11;10.17;;;4.80;;
29958;SDS011;16815;51.100;6.516;2023-03-08T01:07:37;7.47;;;3.97;;
29958;SDS011;16815;51.100;6.516;2023-03-08T01:10:04;8.13;;;4.00;;
29958;SDS011;16815;51.100;6.516;2023-03-08T01:12:33;7.17;;;4.03;;
29958;SDS011;16815;51.100;6.516;2023-03-08T01:15:00;12.57;;;4.77;;
29958;SDS011;16815;51.100;6.516;2023-03-08T01:17:26;11.70;;;4.60;;
29958;SDS011;16815;51.100;6.516;2023-03-08T01:19:52;12.07;;;4.70;;
29958;SDS011;16815;51.100;6.516;2023-03-08T01:22:18;12.20;;;4.73;;
29958;SDS011;16815;51.100;6.516;2023-03-08T01:24:44;8.10;;;4.87;;
29958;SDS011;16815;51.100;6.516;2023-03-08T01:27:10;9.80;;;4.53;;
29958;SDS011;16815;51.100;6.516;2023-03-08T01:29:36;8.53;;;4.67;;
29958;SDS011;16815;51.100;6.516;2023-03-08T01:32:02;6.13;;;4.47;;
29958;SDS011;16815;51.100;6.516;2023-03-08T01:34:28;8.07;;;4.70;;
29958;SDS011;16815;51.100;6.516;2023-03-08T01:36:54;10.13;;;4.70;;
29958;SDS011;16815;51.100;6.516;2023-03-08T01:39:20;7.87;;;4.30;;
29958;SDS011;16815;51.100;6.516;2023-03-08T01:41:46;13.00;;;4.77;;
29958;SDS011;16815;51.100;6.516;2023-03-08T01:44:13;10.43;;;4.20;;
29958;SDS011;16815;51.100;6.516;2023-03-08T01:46:40;8.83;;;5.00;;
29958;SDS011;16815;51.100;6.516;2023-03-08T01:49:19;9.23;;;3.93;;
29958;SDS011;16815;51.100;6.516;2023-03-08T01:51:48;5.57;;;3.97;;
29958;SDS011;16815;51.100;6.516;2023-03-08T01:54:17;11.53;;;4.10;;
29958;SDS011;16815;51.100;6.516;2023-03-08T01:56:45;7.53;;;4.40;;
29958;SDS011;16815;51.100;6.516;2023-03-08T01:59:12;9.50;;;4.13;;
29958;SDS011;16815;51.100;6.516;2023-03-08T02:01:39;10.27;;;4.80;;
29958;SDS011;16815;51.100;6.516;2023-03-08T02:04:05;7.50;;;4.27;;
29958;SDS011;16815;51.100;6.516;2023-03-08T02:06:31;9.80;;;4.00;;
29958;SDS011;16815;51.100;6.516;2023-03-08T02:08:57;6.23;;;3.97;;
29958;SDS011;16815;51.100;6.516;2023-03-08T02:11:27;8.03;;;4.13;;
29958;SDS011;16815;51.100;6.516;2023-03-08T02:13:53;6.30;;;4.70;;
29958;SDS011;16815;51.100;6.516;2023-03-08T02:16:20;6.47;;;4.23;;
29958;SDS011;16815;51.100;6.516;2023-03-08T02:18:50;7.00;;;4.30;;
29958;SDS011;16815;51.100;6.516;2023-03-08T02:21:16;5.40;;;3.97;;
29958;SDS011;16815;51.100;6.516;2023-03-08T02:23:42;6.37;;;4.13;;
29958;SDS011;16815;51.100;6.516;2023-03-08T02:26:08;8.13;;;4.10;;
29958;SDS011;16815;51.100;6.516;2023-03-08T02:28:34;6.37;;;4.47;;
29958;SDS011;16815;51.100;6.516;2023-03-08T02:31:00;6.20;;;4.20;;
29958;SDS011;16815;51.100;6.516;2023-03-08T02:33:26;6.47;;;4.30;;
29958;SDS011;16815;51.100;6.516;2023-03-08T02:35:54;8.40;;;4.17;;
29958;SDS011;16815;51.100;6.516;2023-03-08T02:38:20;6.87;;;4.30;;
29958;SDS011;16815;51.100;6.516;2023-03-08T02:40:46;6.53;;;4.13;;
29958;SDS011;16815;51.100;6.516;2023-03-08T02:43:15;7.53;;;4.20;;
29958;SDS011;16815;51.100;6.516;2023-03-08T02:45:41;6.50;;;4.40;;
29958;SDS011;16815;51.100;6.516;2023-03-08T02:48:07;5.13;;;4.43;;
29958;SDS011;16815;51.100;6.516;2023-03-08T02:50:33;6.80;;;4.50;;
29958;SDS011;16815;51.100;6.516;2023-03-08T02:53:00;5.47;;;4.10;;
29958;SDS011;16815;51.100;6.516;2023-03-08T02:55:26;6.00;;;4.10;;
29958;SDS011;16815;51.100;6.516;2023-03-08T02:57:52;6.70;;;4.43;;
29958;SDS011;16815;51.100;6.516;2023-03-08T03:00:18;11.57;;;4.20;;
29958;SDS011;16815;51.100;6.516;2023-03-08T03:02:44;5.40;;;4.60;;
29958;SDS011;16815;51.100;6.516;2023-03-08T03:05:10;7.60;;;4.30;;
29958;SDS011;16815;51.100;6.516;2023-03-08T03:07:38;6.10;;;4.33;;
29958;SDS011;16815;51.100;6.516;2023-03-08T03:10:04;8.17;;;4.50;;
29958;SDS011;16815;51.100;6.516;2023-03-08T03:12:30;10.60;;;4.07;;
29958;SDS011;16815;51.100;6.516;2023-03-08T03:14:56;7.43;;;4.53;;
29958;SDS011;16815;51.100;6.516;2023-03-08T03:17:22;8.27;;;4.90;;
29958;SDS011;16815;51.100;6.516;2023-03-08T03:19:48;6.70;;;5.03;;
29958;SDS011;16815;51.100;6.516;2023-03-08T03:22:14;10.37;;;5.10;;
29958;SDS011;16815;51.100;6.516;2023-03-08T03:24:40;6.93;;;4.80;;
29958;SDS011;16815;51.100;6.516;2023-03-08T03:27:06;11.57;;;4.63;;
29958;SDS011;16815;51.100;6.516;2023-03-08T03:29:32;6.43;;;4.33;;
29958;SDS011;16815;51.100;6.516;2023-03-08T03:31:58;5.97;;;4.57;;
29958;SDS011;16815;51.100;6.516;2023-03-08T03:34:24;9.70;;;5.73;;
29958;SDS011;16815;51.100;6.516;2023-03-08T03:36:50;7.87;;;4.67;;
29958;SDS011;16815;51.100;6.516;2023-03-08T03:39:16;8.30;;;4.77;;
29958;SDS011;16815;51.100;6.516;2023-03-08T03:41:41;9.27;;;4.87;;
29958;SDS011;16815;51.100;6.516;2023-03-08T03:44:07;8.37;;;4.93;;
29958;SDS011;16815;51.100;6.516;2023-03-08T03:46:33;6.57;;;4.53;;
29958;SDS011;16815;51.100;6.516;2023-03-08T03:48:59;9.90;;;4.87;;
29958;SDS011;16815;51.100;6.516;2023-03-08T03:51:25;8.87;;;5.33;;
29958;SDS011;16815;51.100;6.516;2023-03-08T03:53:51;10.43;;;5.60;;
29958;SDS011;16815;51.100;6.516;2023-03-08T03:58:43;8.67;;;5.57;;
29958;SDS011;16815;51.100;6.516;2023-03-08T04:01:11;12.70;;;5.30;;
29958;SDS011;16815;51.100;6.516;2023-03-08T04:03:38;11.50;;;6.00;;
29958;SDS011;16815;51.100;6.516;2023-03-08T04:06:15;11.70;;;5.90;;
29958;SDS011;16815;51.100;6.516;2023-03-08T04:08:41;11.73;;;6.27;;
29958;SDS011;16815;51.100;6.516;2023-03-08T04:11:08;9.07;;;6.03;;
29958;SDS011;16815;51.100;6.516;2023-03-08T04:13:34;10.07;;;6.43;;
29958;SDS011;16815;51.100;6.516;2023-03-08T04:16:07;8.97;;;6.53;;
29958;SDS011;16815;51.100;6.516;2023-03-08T04:18:33;9.90;;;6.63;;
29958;SDS011;16815;51.100;6.516;2023-03-08T04:20:59;7.03;;;6.20;;
29958;SDS011;16815;51.100;6.516;2023-03-08T04:23:24;11.30;;;7.40;;
29958;SDS011;16815;51.100;6.516;2023-03-08T04:25:50;8.50;;;6.87;;
29958;SDS011;16815;51.100;6.516;2023-03-08T04:28:16;8.17;;;6.97;;
29958;SDS011;16815;51.100;6.516;2023-03-08T04:30:42;7.40;;;6.60;;
29958;SDS011;16815;51.100;6.516;2023-03-08T04:33:08;8.80;;;5.83;;
29958;SDS011;16815;51.100;6.516;2023-03-08T04:35:37;9.17;;;6.43;;
29958;SDS011;16815;51.100;6.516;2023-03-08T04:38:03;9.80;;;6.80;;
29958;SDS011;16815;51.100;6.516;2023-03-08T04:40:29;7.47;;;6.67;;
29958;SDS011;16815;51.100;6.516;2023-03-08T04:42:55;7.50;;;5.97;;
29958;SDS011;16815;51.100;6.516;2023-03-08T04:45:21;8.63;;;6.17;;
29958;SDS011;16815;51.100;6.516;2023-03-08T04:47:47;6.43;;;5.50;;
29958;SDS011;16815;51.100;6.516;2023-03-08T04:50:13;7.70;;;5.73;;
29958;SDS011;16815;51.100;6.516;2023-03-08T04:52:39;8.57;;;5.90;;
29958;SDS011;16815;51.100;6.516;2023-03-08T04:55:05;9.23;;;5.93;;
29958;SDS011;16815;51.100;6.516;2023-03-08T04:57:31;8.67;;;6.20;;
29958;SDS011;16815;51.100;6.516;2023-03-08T04:59:59;8.70;;;6.20;;
29958;SDS011;16815;51.100;6.516;2023-03-08T05:02:25;8.57;;;6.70;;
29958;SDS011;16815;51.100;6.516;2023-03-08T05:04:50;9.70;;;7.17;;
29958;SDS011;16815;51.100;6.516;2023-03-08T05:07:16;8.90;;;7.37;;
29958;SDS011;16815;51.100;6.516;2023-03-08T05:09:42;10.03;;;7.00;;
29958;SDS011;16815;51.100;6.516;2023-03-08T05:12:08;10.50;;;7.10;;
29958;SDS011;16815;51.100;6.516;2023-03-08T05:14:34;9.07;;;7.37;;
29958;SDS011;16815;51.100;6.516;2023-03-08T05:17:03;9.27;;;7.23;;
29958;SDS011;16815;51.100;6.516;2023-03-08T05:19:29;8.30;;;7.33;;
29958;SDS011;16815;51.100;6.516;2023-03-08T05:21:55;10.60;;;6.80;;
29958;SDS011;16815;51.100;6.516;2023-03-08T05:24:21;9.43;;;6.40;;
29958;SDS011;16815;51.100;6.516;2023-03-08T05:26:47;8.70;;;6.47;;
29958;SDS011;16815;51.100;6.516;2023-03-08T05:29:13;6.83;;;6.17;;
29958;SDS011;16815;51.100;6.516;2023-03-08T05:31:39;7.00;;;5.20;;
29958;SDS011;16815;51.100;6.516;2023-03-08T05:34:09;6.47;;;5.23;;
29958;SDS011;16815;51.100;6.516;2023-03-08T05:36:35;7.77;;;5.30;;
29958;SDS011;16815;51.100;6.516;2023-03-08T05:39:01;7.30;;;5.00;;
29958;SDS011;16815;51.100;6.516;2023-03-08T05:41:27;6.97;;;5.07;;
29958;SDS011;16815;51.100;6.516;2023-03-08T05:43:53;7.63;;;5.40;;
29958;SDS011;16815;51.100;6.516;2023-03-08T05:46:19;7.17;;;6.17;;
29958;SDS011;16815;51.100;6.516;2023-03-08T05:48:45;8.53;;;7.23;;
29958;SDS011;16815;51.100;6.516;2023-03-08T05:51:15;8.40;;;6.90;;
29958;SDS011;16815;51.100;6.516;2023-03-08T05:53:41;10.23;;;7.37;;
29958;SDS011;16815;51.100;6.516;2023-03-08T05:56:08;7.90;;;7.10;;
29958;SDS011;16815;51.100;6.516;2023-03-08T05:58:34;8.03;;;7.23;;
29958;SDS011;16815;51.100;6.516;2023-03-08T06:01:07;10.03;;;8.60;;
29958;SDS011;16815;51.100;6.516;2023-03-08T06:03:33;12.53;;;10.60;;
29958;SDS011;16815;51.100;6.516;2023-03-08T06:05:59;14.93;;;10.20;;
29958;SDS011;16815;51.100;6.516;2023-03-08T06:08:25;16.07;;;12.20;;
29958;SDS011;16815;51.100;6.516;2023-03-08T06:10:51;17.03;;;12.10;;
29958;SDS011;16815;51.100;6.516;2023-03-08T06:13:17;15.90;;;12.50;;
29958;SDS011;16815;51.100;6.516;2023-03-08T06:15:43;17.90;;;13.20;;
29958;SDS011;16815;51.100;6.516;2023-03-08T06:18:08;15.73;;;11.90;;
29958;SDS011;16815;51.100;6.516;2023-03-08T06:20:34;16.30;;;12.63;;
29958;SDS011;16815;51.100;6.516;2023-03-08T06:23:00;13.17;;;10.73;;
29958;SDS011;16815;51.100;6.516;2023-03-08T06:25:26;13.83;;;10.27;;
29958;SDS011;16815;51.100;6.516;2023-03-08T06:27:52;12.77;;;9.90;;
29958;SDS011;16815;51.100;6.516;2023-03-08T06:30:18;13.50;;;10.00;;
29958;SDS011;16815;51.100;6.516;2023-03-08T06:32:44;12.40;;;9.90;;
29958;SDS011;16815;51.100;6.516;2023-03-08T06:35:10;12.40;;;10.13;;
29958;SDS011;16815;51.100;6.516;2023-03-08T06:37:36;13.47;;;10.40;;
29958;SDS011;16815;51.100;6.516;2023-03-08T06:40:02;11.60;;;10.10;;
29958;SDS011;16815;51.100;6.516;2023-03-08T06:42:29;16.03;;;10.00;;
29958;SDS011;16815;51.100;6.516;2023-03-08T06:44:55;12.93;;;10.17;;
29958;SDS011;16815;51.100;6.516;2023-03-08T06:47:21;11.97;;;9.17;;
29958;SDS011;16815;51.100;6.516;2023-03-08T06:49:47;13.83;;;10.30;;
29958;SDS011;16815;51.100;6.516;2023-03-08T06:52:13;12.90;;;10.13;;
29958;SDS011;16815;51.100;6.516;2023-03-08T06:54:39;12.27;;;9.73;;
29958;SDS011;16815;51.100;6.516;2023-03-08T06:57:08;13.90;;;9.90;;
29958;SDS011;16815;51.100;6.516;2023-03-08T06:59:34;10.80;;;8.97;;
29958;SDS011;16815;51.100;6.516;2023-03-08T07:02:00;12.67;;;9.20;;
29958;SDS011;16815;51.100;6.516;2023-03-08T07:04:26;11.10;;;9.13;;
29958;SDS011;16815;51.100;6.516;2023-03-08T07:06:52;11.50;;;9.07;;
29958;SDS011;16815;51.100;6.516;2023-03-08T07:09:18;11.40;;;9.20;;
29958;SDS011;16815;51.100;6.516;2023-03-08T07:11:44;10.13;;;8.73;;
29958;SDS011;16815;51.100;6.516;2023-03-08T07:14:10;12.73;;;9.53;;
29958;SDS011;16815;51.100;6.516;2023-03-08T07:16:36;12.60;;;9.33;;
29958;SDS011;16815;51.100;6.516;2023-03-08T07:19:02;11.53;;;9.00;;
29958;SDS011;16815;51.100;6.516;2023-03-08T07:21:28;9.73;;;8.50;;
29958;SDS011;16815;51.100;6.516;2023-03-08T07:23:54;12.10;;;8.17;;
29958;SDS011;16815;51.100;6.516;2023-03-08T07:26:20;11.63;;;8.80;;
29958;SDS011;16815;51.100;6.516;2023-03-08T07:28:48;10.27;;;8.67;;
29958;SDS011;16815;51.100;6.516;2023-03-08T07:31:15;9.37;;;8.40;;
29958;SDS011;16815;51.100;6.516;2023-03-08T07:33:41;9.47;;;8.47;;
29958;SDS011;16815;51.100;6.516;2023-03-08T07:36:07;9.20;;;8.07;;
29958;SDS011;16815;51.100;6.516;2023-03-08T07:38:33;9.27;;;7.67;;
29958;SDS011;16815;51.100;6.516;2023-03-08T07:40:59;11.27;;;7.37;;
29958;SDS011;16815;51.100;6.516;2023-03-08T07:43:25;8.70;;;7.13;;
29958;SDS011;16815;51.100;6.516;2023-03-08T07:45:51;8.73;;;7.57;;
29958;SDS011;16815;51.100;6.516;2023-03-08T07:48:17;8.23;;;7.33;;
29958;SDS011;16815;51.100;6.516;2023-03-08T07:50:43;8.17;;;7.37;;
29958;SDS011;16815;51.100;6.516;2023-03-08T07:53:09;9.83;;;7.57;;
29958;SDS011;16815;51.100;6.516;2023-03-08T07:55:35;8.73;;;7.77;;
29958;SDS011;16815;51.100;6.516;2023-03-08T07:58:02;10.60;;;8.10;;
29958;SDS011;16815;51.100;6.516;2023-03-08T08:00:28;9.90;;;7.97;;
29958;SDS011;16815;51.100;6.516;2023-03-08T08:02:54;10.60;;;8.20;;
29958;SDS011;16815;51.100;6.516;2023-03-08T08:05:21;11.90;;;8.90;;
29958;SDS011;16815;51.100;6.516;2023-03-08T08:07:47;10.93;;;8.70;;
29958;SDS011;16815;51.100;6.516;2023-03-08T08:10:13;10.77;;;8.47;;
29958;SDS011;16815;51.100;6.516;2023-03-08T08:12:39;10.17;;;8.60;;
29958;SDS011;16815;51.100;6.516;2023-03-08T08:15:05;12.23;;;9.97;;
29958;SDS011;16815;51.100;6.516;2023-03-08T08:17:31;10.93;;;8.90;;
29958;SDS011;16815;51.100;6.516;2023-03-08T08:19:57;10.60;;;8.90;;
29958;SDS011;16815;51.100;6.516;2023-03-08T08:22:23;11.50;;;9.17;;
29958;SDS011;16815;51.100;6.516;2023-03-08T08:24:50;9.80;;;8.20;;
29958;SDS011;16815;51.100;6.516;2023-03-08T08:27:16;10.97;;;7.97;;
29958;SDS011;16815;51.100;6.516;2023-03-08T08:29:42;9.30;;;8.07;;
29958;SDS011;16815;51.100;6.516;2023-03-08T08:32:10;10.27;;;8.70;;
29958;SDS011;16815;51.100;6.516;2023-03-08T08:34:36;9.83;;;8.63;;
29958;SDS011;16815;51.100;6.516;2023-03-08T08:37:02;9.70;;;8.20;;
29958;SDS011;16815;51.100;6.516;2023-03-08T08:39:28;9.27;;;8.37;;
29958;SDS011;16815;51.100;6.516;2023-03-08T08:41:54;9.13;;;8.20;;
29958;SDS011;16815;51.100;6.516;2023-03-08T08:44:20;9.73;;;8.40;;
29958;SDS011;16815;51.100;6.516;2023-03-08T08:46:46;9.80;;;8.77;;
29958;SDS011;16815;51.100;6.516;2023-03-08T08:49:12;8.80;;;7.90;;
29958;SDS011;16815;51.100;6.516;2023-03-08T08:51:37;9.60;;;8.50;;
29958;SDS011;16815;51.100;6.516;2023-03-08T08:54:03;10.50;;;8.20;;
29958;SDS011;16815;51.100;6.516;2023-03-08T08:56:29;9.70;;;8.53;;
29958;SDS011;16815;51.100;6.516;2023-03-08T08:58:56;9.67;;;7.97;;
29958;SDS011;16815;51.100;6.516;2023-03-08T09:01:24;9.43;;;8.43;;
29958;SDS011;16815;51.100;6.516;2023-03-08T09:03:51;9.87;;;8.50;;
29958;SDS011;16815;51.100;6.516;2023-03-08T09:06:17;9.67;;;8.67;;
29958;SDS011;16815;51.100;6.516;2023-03-08T09:08:44;9.60;;;8.60;;
29958;SDS011;16815;51.100;6.516;2023-03-08T09:11:10;10.40;;;9.27;;
29958;SDS011;16815;51.100;6.516;2023-03-08T09:13:36;9.97;;;8.47;;
29958;SDS011;16815;51.100;6.516;2023-03-08T09:16:04;9.77;;;8.77;;
29958;SDS011;16815;51.100;6.516;2023-03-08T09:18:30;9.57;;;8.43;;
29958;SDS011;16815;51.100;6.516;2023-03-08T09:20:56;10.57;;;8.73;;
29958;SDS011;16815;51.100;6.516;2023-03-08T09:23:22;10.10;;;8.27;;
29958;SDS011;16815;51.100;6.516;2023-03-08T09:25:56;9.40;;;8.33;;
29958;SDS011;16815;51.100;6.516;2023-03-08T09:28:23;9.90;;;8.87;;
29958;SDS011;16815;51.100;6.516;2023-03-08T09:30:49;10.13;;;9.13;;
29958;SDS011;16815;51.100;6.516;2023-03-08T09:33:15;9.90;;;8.90;;
29958;SDS011;16815;51.100;6.516;2023-03-08T09:35:41;9.80;;;8.90;;
29958;SDS011;16815;51.100;6.516;2023-03-08T09:38:07;10.00;;;9.00;;
29958;SDS011;16815;51.100;6.516;2023-03-08T09:40:36;10.77;;;9.37;;
29958;SDS011;16815;51.100;6.516;2023-03-08T09:43:08;10.47;;;8.83;;
29958;SDS011;16815;51.100;6.516;2023-03-08T09:45:37;10.60;;;9.50;;
29958;SDS011;16815;51.100;6.516;2023-03-08T09:48:08;10.57;;;9.47;;
29958;SDS011;16815;51.100;6.516;2023-03-08T09:50:48;11.17;;;9.73;;
29958;SDS011;16815;51.100;6.516;2023-03-08T09:53:27;11.13;;;10.00;;
29958;SDS011;16815;51.100;6.516;2023-03-08T09:55:55;10.97;;;9.53;;
29958;SDS011;16815;51.100;6.516;2023-03-08T09:58:34;11.80;;;9.80;;
29958;SDS011;16815;51.100;6.516;2023-03-08T10:03:55;10.20;;;9.20;;
29958;SDS011;16815;51.100;6.516;2023-03-08T10:06:28;11.80;;;10.60;;
29958;SDS011;16815;51.100;6.516;2023-03-08T10:11:45;11.90;;;10.70;;
29958;SDS011;16815;51.100;6.516;2023-03-08T10:14:15;11.70;;;10.50;;
29958;SDS011;16815;51.100;6.516;2023-03-08T10:16:44;11.37;;;10.20;;
29958;SDS011;16815;51.100;6.516;2023-03-08T10:19:14;11.20;;;10.10;;
29958;SDS011;16815;51.100;6.516;2023-03-08T10:21:40;12.57;;;10.60;;
29958;SDS011;16815;51.100;6.516;2023-03-08T10:24:13;12.57;;;10.83;;
29958;SDS011;16815;51.100;6.516;2023-03-08T10:26:41;12.00;;;10.70;;
29958;SDS011;16815;51.100;6.516;2023-03-08T10:29:09;12.53;;;11.23;;
29958;SDS011;16815;51.100;6.516;2023-03-08T10:31:35;15.23;;;11.50;;
29958;SDS011;16815;51.100;6.516;2023-03-08T10:34:05;13.30;;;10.03;;
29958;SDS011;16815;51.100;6.516;2023-03-08T10:36:31;12.40;;;11.20;;
29958;SDS011;16815;51.100;6.516;2023-03-08T10:38:59;11.43;;;10.30;;
29958;SDS011;16815;51.100;6.516;2023-03-08T10:41:25;13.17;;;11.10;;
29958;SDS011;16815;51.100;6.516;2023-03-08T10:43:53;12.67;;;11.10;;
29958;SDS011;16815;51.100;6.516;2023-03-08T10:46:21;12.57;;;11.13;;
29958;SDS011;16815;51.100;6.516;2023-03-08T10:48:47;13.57;;;11.90;;
29958;SDS011;16815;51.100;6.516;2023-03-08T10:51:20;14.27;;;11.83;;
29958;SDS011;16815;51.100;6.516;2023-03-08T10:56:32;13.47;;;11.63;;
29958;SDS011;16815;51.100;6.516;2023-03-08T10:59:15;13.37;;;11.77;;
29958;SDS011;16815;51.100;6.516;2023-03-08T11:01:51;17.87;;;13.37;;
29958;SDS011;16815;51.100;6.516;2023-03-08T13:35:37;12.27;;;10.97;;
29958;SDS011;16815;51.100;6.516;2023-03-08T13:38:03;13.00;;;11.70;;
29958;SDS011;16815;51.100;6.516;2023-03-08T13:40:29;14.07;;;12.60;;
29958;SDS011;16815;51.100;6.516;2023-03-08T13:42:59;13.80;;;12.03;;
29958;SDS011;16815;51.100;6.516;2023-03-08T13:45:34;13.10;;;11.87;;
29958;SDS011;16815;51.100;6.516;2023-03-08T13:48:02;11.93;;;10.73;;
29958;SDS011;16815;51.100;6.516;2023-03-08T13:50:35;11.27;;;10.17;;
29958;SDS011;16815;51.100;6.516;2023-03-08T13:53:02;10.27;;;9.37;;
29958;SDS011;16815;51.100;6.516;2023-03-08T13:55:32;11.23;;;10.13;;
29958;SDS011;16815;51.100;6.516;2023-03-08T13:57:59;10.93;;;9.80;;
29958;SDS011;16815;51.100;6.516;2023-03-08T14:02:51;9.77;;;8.87;;
29958;SDS011;16815;51.100;6.516;2023-03-08T14:05:18;10.13;;;8.83;;
29958;SDS011;16815;51.100;6.516;2023-03-08T14:07:56;9.70;;;8.80;;
29958;SDS011;16815;51.100;6.516;2023-03-08T14:10:23;10.23;;;9.23;;
29958;SDS011;16815;51.100;6.516;2023-03-08T14:12:52;10.47;;;9.10;;
29958;SDS011;16815;51.100;6.516;2023-03-08T14:15:18;11.50;;;9.57;;
29958;SDS011;16815;51.100;6.516;2023-03-08T14:17:44;10.67;;;9.47;;
29958;SDS011;16815;51.100;6.516;2023-03-08T14:20:20;9.73;;;8.63;;
29958;SDS011;16815;51.100;6.516;2023-03-08T14:22:47;10.83;;;9.33;;
29958;SDS011;16815;51.100;6.516;2023-03-08T14:25:24;13.47;;;9.33;;
29958;SDS011;16815;51.100;6.516;2023-03-08T14:27:50;12.20;;;9.60;;
29958;SDS011;16815;51.100;6.516;2023-03-08T14:30:18;12.27;;;9.90;;
29958;SDS011;16815;51.100;6.516;2023-03-08T14:32:55;32.83;;;19.90;;
29958;SDS011;16815;51.100;6.516;2023-03-08T14:35:23;22.37;;;13.23;;
29958;SDS011;16815;51.100;6.516;2023-03-08T14:37:50;19.57;;;13.50;;
29958;SDS011;16815;51.100;6.516;2023-03-08T14:40:30;25.47;;;16.67;;
29958;SDS011;16815;51.100;6.516;2023-03-08T14:43:03;22.47;;;14.83;;
29958;SDS011;16815;51.100;6.516;2023-03-08T14:45:35;19.37;;;13.67;;
29958;SDS011;16815;51.100;6.516;2023-03-08T14:48:13;22.57;;;15.53;;
29958;SDS011;16815;51.100;6.516;2023-03-08T14:50:49;13.17;;;10.47;;
29958;SDS011;16815;51.100;6.516;2023-03-08T14:53:22;22.60;;;16.10;;
29958;SDS011;16815;51.100;6.516;2023-03-08T14:55:49;20.90;;;18.67;;
29958;SDS011;16815;51.100;6.516;2023-03-08T14:58:14;14.93;;;11.70;;
29958;SDS011;16815;51.100;6.516;2023-03-08T15:00:50;11.37;;;10.00;;
29958;SDS011;16815;51.100;6.516;2023-03-08T15:03:17;10.13;;;9.13;;
29958;SDS011;16815;51.100;6.516;2023-03-08T15:05:43;9.57;;;8.57;;
29958;SDS011;16815;51.100;6.516;2023-03-08T15:08:10;9.43;;;8.53;;
29958;SDS011;16815;51.100;6.516;2023-03-08T15:10:37;9.63;;;8.70;;
29958;SDS011;16815;51.100;6.516;2023-03-08T15:13:05;26.27;;;10.17;;
29958;SDS011;16815;51.100;6.516;2023-03-08T15:15:32;10.63;;;9.63;;
29958;SDS011;16815;51.100;6.516;2023-03-08T15:17:58;11.77;;;10.70;;
29958;SDS011;16815;51.100;6.516;2023-03-08T15:20:24;10.40;;;9.50;;
29958;SDS011;16815;51.100;6.516;2023-03-08T15:22:51;11.43;;;10.40;;
29958;SDS011;16815;51.100;6.516;2023-03-08T15:25:20;11.10;;;10.07;;
29958;SDS011;16815;51.100;6.516;2023-03-08T15:27:47;9.90;;;9.00;;
29958;SDS011;16815;51.100;6.516;2023-03-08T15:30:14;12.20;;;9.83;;
29958;SDS011;16815;51.100;6.516;2023-03-08T15:32:40;11.10;;;9.93;;
29958;SDS011;16815;51.100;6.516;2023-03-08T15:35:06;11.30;;;10.13;;
29958;SDS011;16815;51.100;6.516;2023-03-08T15:37:32;11.73;;;10.53;;
29958;SDS011;16815;51.100;6.516;2023-03-08T15:39:58;11.27;;;10.07;;
29958;SDS011;16815;51.100;6.516;2023-03-08T15:42:24;10.73;;;9.73;;
29958;SDS011;16815;51.100;6.516;2023-03-08T15:44:50;11.90;;;10.57;;
29958;SDS011;16815;51.100;6.516;2023-03-08T15:47:16;16.90;;;13.77;;
29958;SDS011;16815;51.100;6.516;2023-03-08T15:49:42;17.30;;;11.70;;
29958;SDS011;16815;51.100;6.516;2023-03-08T15:52:11;12.20;;;11.00;;
29958;SDS011;16815;51.100;6.516;2023-03-08T15:54:37;10.73;;;9.73;;
29958;SDS011;16815;51.100;6.516;2023-03-08T15:57:04;10.90;;;9.90;;
29958;SDS011;16815;51.100;6.516;2023-03-08T15:59:30;10.90;;;9.87;;
29958;SDS011;16815;51.100;6.516;2023-03-08T16:01:56;13.70;;;9.70;;
29958;SDS011;16815;51.100;6.516;2023-03-08T16:04:22;10.07;;;9.00;;
29958;SDS011;16815;51.100;6.516;2023-03-08T16:06:48;10.30;;;9.30;;
29958;SDS011;16815;51.100;6.516;2023-03-08T16:09:14;11.23;;;10.23;;
29958;SDS011;16815;51.100;6.516;2023-03-08T16:11:39;10.53;;;9.53;;
29958;SDS011;16815;51.100;6.516;2023-03-08T16:14:05;10.97;;;9.87;;
29958;SDS011;16815;51.100;6.516;2023-03-08T16:16:31;11.10;;;9.77;;
29958;SDS011;16815;51.100;6.516;2023-03-08T16:18:57;13.40;;;10.23;;
29958;SDS011;16815;51.100;6.516;2023-03-08T16:21:23;11.13;;;10.13;;
29958;SDS011;16815;51.100;6.516;2023-03-08T16:23:49;10.47;;;9.47;;
29958;SDS011;16815;51.100;6.516;2023-03-08T16:26:15;11.07;;;9.97;;
29958;SDS011;16815;51.100;6.516;2023-03-08T16:28:41;11.00;;;10.00;;
29958;SDS011;16815;51.100;6.516;2023-03-08T16:31:08;11.43;;;10.33;;
29958;SDS011;16815;51.100;6.516;2023-03-08T16:33:34;12.60;;;11.33;;
29958;SDS011;16815;51.100;6.516;2023-03-08T16:36:00;13.40;;;11.93;;
29958;SDS011;16815;51.100;6.516;2023-03-08T16:38:26;13.40;;;12.10;;
29958;SDS011;16815;51.100;6.516;2023-03-08T16:40:52;12.63;;;11.43;;
29958;SDS011;16815;51.100;6.516;2023-03-08T16:43:18;13.73;;;11.37;;
29958;SDS011;16815;51.100;6.516;2023-03-08T16:45:57;13.70;;;12.30;;
29958;SDS011;16815;51.100;6.516;2023-03-08T16:48:24;12.30;;;11.13;;
29958;SDS011;16815;51.100;6.516;2023-03-08T16:50:52;13.23;;;11.93;;
29958;SDS011;16815;51.100;6.516;2023-03-08T16:53:18;14.70;;;13.13;;
29958;SDS011;16815;51.100;6.516;2023-03-08T16:55:45;13.57;;;12.17;;
29958;SDS011;16815;51.100;6.516;2023-03-08T16:58:11;15.47;;;13.90;;
29958;SDS011;16815;51.100;6.516;2023-03-08T17:00:37;13.20;;;11.93;;
29958;SDS011;16815;51.100;6.516;2023-03-08T17:03:03;14.60;;;13.07;;
29958;SDS011;16815;51.100;6.516;2023-03-08T17:05:30;14.80;;;13.23;;
29958;SDS011;16815;51.100;6.516;2023-03-08T17:07:56;13.53;;;12.23;;
29958;SDS011;16815;51.100;6.516;2023-03-08T17:10:22;13.30;;;12.03;;
29958;SDS011;16815;51.100;6.516;2023-03-08T17:12:48;14.10;;;12.70;;
29958;SDS011;16815;51.100;6.516;2023-03-08T17:15:14;13.43;;;12.13;;
29958;SDS011;16815;51.100;6.516;2023-03-08T17:17:40;13.73;;;12.33;;
29958;SDS011;16815;51.100;6.516;2023-03-08T17:20:06;13.67;;;12.23;;